sensor_id;sensor_type;location;lat;lon;timestamp;P1;durP1;ratioP1;P2;durP2;ratioP2
6432;SDS011;3249;42.690;23.260;2023-08-20T00:00:17;11.60;;;8.90;;
6432;SDS011;3249;42.690;23.260;2023-08-20T00:02:48;8.83;;;8.13;;
6432;SDS011;3249;42.690;23.260;2023-08-20T00:05:20;9.37;;;8.57;;
6432;SDS011;3249;42.690;23.260;2023-08-20T00:07:50;9.20;;;8.03;;
6432;SDS011;3249;42.690;23.260;2023-08-20T00:10:19;10.20;;;9.07;;
6432;SDS011;3249;42.690;23.260;2023-08-20T00:12:48;8.83;;;8.03;;
6432;SDS011;3249;42.690;23.260;2023-08-20T00:15:19;9.43;;;8.13;;
6432;SDS011;3249;42.690;23.260;2023-08-20T00:17:53;9.70;;;8.73;;
6432;SDS011;3249;42.690;23.260;2023-08-20T00:20:23;8.30;;;7.70;;
6432;SDS011;3249;42.690;23.260;2023-08-20T00:22:54;9.73;;;8.90;;
6432;SDS011;3249;42.690;23.260;2023-08-20T00:25:23;9.70;;;8.80;;
6432;SDS011;3249;42.690;23.260;2023-08-20T00:27:53;9.03;;;8.30;;
6432;SDS011;3249;42.690;23.260;2023-08-20T00:30:24;9.77;;;8.77;;
6432;SDS011;3249;42.690;23.260;2023-08-20T00:32:53;9.60;;;8.70;;
6432;SDS011;3249;42.690;23.260;2023-08-20T00:35:23;11.63;;;9.17;;
6432;SDS011;3249;42.690;23.260;2023-08-20T00:37:52;8.73;;;8.03;;
6432;SDS011;3249;42.690;23.260;2023-08-20T00:40:21;13.07;;;9.00;;
6432;SDS011;3249;42.690;23.260;2023-08-20T00:42:49;11.20;;;8.83;;
6432;SDS011;3249;42.690;23.260;2023-08-20T00:45:18;10.47;;;9.37;;
6432;SDS011;3249;42.690;23.260;2023-08-20T00:47:51;11.47;;;9.10;;
6432;SDS011;3249;42.690;23.260;2023-08-20T00:50:22;9.27;;;8.53;;
6432;SDS011;3249;42.690;23.260;2023-08-20T00:52:50;9.53;;;8.63;;
6432;SDS011;3249;42.690;23.260;2023-08-20T00:55:19;9.97;;;9.07;;
6432;SDS011;3249;42.690;23.260;2023-08-20T00:57:49;9.73;;;8.93;;
6432;SDS011;3249;42.690;23.260;2023-08-20T01:00:18;9.57;;;8.63;;
6432;SDS011;3249;42.690;23.260;2023-08-20T01:02:48;10.30;;;9.50;;
6432;SDS011;3249;42.690;23.260;2023-08-20T01:05:19;10.23;;;9.23;;
6432;SDS011;3249;42.690;23.260;2023-08-20T01:07:54;9.83;;;8.83;;
6432;SDS011;3249;42.690;23.260;2023-08-20T01:10:34;9.97;;;9.07;;
6432;SDS011;3249;42.690;23.260;2023-08-20T01:13:09;11.83;;;8.23;;
6432;SDS011;3249;42.690;23.260;2023-08-20T01:15:38;10.23;;;8.97;;
6432;SDS011;3249;42.690;23.260;2023-08-20T01:18:07;8.90;;;8.20;;
6432;SDS011;3249;42.690;23.260;2023-08-20T01:20:41;10.07;;;9.27;;
6432;SDS011;3249;42.690;23.260;2023-08-20T01:23:25;11.87;;;10.30;;
6432;SDS011;3249;42.690;23.260;2023-08-20T01:26:31;10.57;;;9.50;;
6432;SDS011;3249;42.690;23.260;2023-08-20T01:29:11;9.90;;;9.00;;
6432;SDS011;3249;42.690;23.260;2023-08-20T01:31:42;10.00;;;9.23;;
6432;SDS011;3249;42.690;23.260;2023-08-20T01:34:12;12.33;;;9.83;;
6432;SDS011;3249;42.690;23.260;2023-08-20T01:36:44;10.43;;;9.43;;
6432;SDS011;3249;42.690;23.260;2023-08-20T01:39:13;10.33;;;9.47;;
6432;SDS011;3249;42.690;23.260;2023-08-20T01:41:42;10.63;;;9.53;;
6432;SDS011;3249;42.690;23.260;2023-08-20T01:44:13;13.77;;;11.27;;
6432;SDS011;3249;42.690;23.260;2023-08-20T01:46:43;11.03;;;10.03;;
6432;SDS011;3249;42.690;23.260;2023-08-20T01:49:13;11.33;;;10.23;;
6432;SDS011;3249;42.690;23.260;2023-08-20T01:51:42;11.63;;;9.70;;
6432;SDS011;3249;42.690;23.260;2023-08-20T01:54:10;11.87;;;10.43;;
6432;SDS011;3249;42.690;23.260;2023-08-20T01:56:39;11.13;;;10.10;;
6432;SDS011;3249;42.690;23.260;2023-08-20T01:59:09;11.00;;;9.93;;
6432;SDS011;3249;42.690;23.260;2023-08-20T02:01:41;11.07;;;10.10;;
6432;SDS011;3249;42.690;23.260;2023-08-20T02:04:10;11.27;;;10.20;;
6432;SDS011;3249;42.690;23.260;2023-08-20T02:06:38;10.90;;;9.73;;
6432;SDS011;3249;42.690;23.260;2023-08-20T02:09:07;11.63;;;10.53;;
6432;SDS011;3249;42.690;23.260;2023-08-20T02:11:37;11.43;;;10.00;;
6432;SDS011;3249;42.690;23.260;2023-08-20T02:14:06;11.23;;;9.67;;
6432;SDS011;3249;42.690;23.260;2023-08-20T02:16:35;11.00;;;9.33;;
6432;SDS011;3249;42.690;23.260;2023-08-20T02:19:07;10.10;;;9.30;;
6432;SDS011;3249;42.690;23.260;2023-08-20T02:21:36;10.73;;;9.80;;
6432;SDS011;3249;42.690;23.260;2023-08-20T02:24:06;11.67;;;10.43;;
6432;SDS011;3249;42.690;23.260;2023-08-20T02:26:36;12.67;;;9.90;;
6432;SDS011;3249;42.690;23.260;2023-08-20T02:29:04;10.57;;;9.67;;
6432;SDS011;3249;42.690;23.260;2023-08-20T02:31:35;10.57;;;9.47;;
6432;SDS011;3249;42.690;23.260;2023-08-20T02:34:07;10.90;;;9.77;;
6432;SDS011;3249;42.690;23.260;2023-08-20T02:36:35;11.10;;;10.00;;
6432;SDS011;3249;42.690;23.260;2023-08-20T02:39:05;10.93;;;9.93;;
6432;SDS011;3249;42.690;23.260;2023-08-20T02:41:34;11.83;;;10.67;;
6432;SDS011;3249;42.690;23.260;2023-08-20T02:44:04;11.63;;;10.50;;
6432;SDS011;3249;42.690;23.260;2023-08-20T02:46:33;11.67;;;10.50;;
6432;SDS011;3249;42.690;23.260;2023-08-20T02:49:03;11.67;;;10.43;;
6432;SDS011;3249;42.690;23.260;2023-08-20T02:51:35;11.73;;;10.13;;
6432;SDS011;3249;42.690;23.260;2023-08-20T02:54:07;10.90;;;9.97;;
6432;SDS011;3249;42.690;23.260;2023-08-20T02:56:35;11.33;;;9.83;;
6432;SDS011;3249;42.690;23.260;2023-08-20T02:59:04;12.20;;;10.30;;
6432;SDS011;3249;42.690;23.260;2023-08-20T03:01:34;11.93;;;10.87;;
6432;SDS011;3249;42.690;23.260;2023-08-20T03:04:03;13.10;;;10.53;;
6432;SDS011;3249;42.690;23.260;2023-08-20T03:06:35;11.57;;;10.43;;
6432;SDS011;3249;42.690;23.260;2023-08-20T03:09:04;11.93;;;10.87;;
6432;SDS011;3249;42.690;23.260;2023-08-20T03:11:35;11.23;;;10.13;;
6432;SDS011;3249;42.690;23.260;2023-08-20T03:14:04;12.07;;;10.90;;
6432;SDS011;3249;42.690;23.260;2023-08-20T03:16:33;11.00;;;10.03;;
6432;SDS011;3249;42.690;23.260;2023-08-20T03:19:02;12.17;;;11.03;;
6432;SDS011;3249;42.690;23.260;2023-08-20T03:21:32;17.07;;;11.13;;
6432;SDS011;3249;42.690;23.260;2023-08-20T03:24:04;15.53;;;12.50;;
6432;SDS011;3249;42.690;23.260;2023-08-20T03:26:34;15.47;;;10.77;;
6432;SDS011;3249;42.690;23.260;2023-08-20T03:29:03;11.90;;;10.60;;
6432;SDS011;3249;42.690;23.260;2023-08-20T03:31:32;12.17;;;10.97;;
6432;SDS011;3249;42.690;23.260;2023-08-20T03:34:02;20.70;;;11.77;;
6432;SDS011;3249;42.690;23.260;2023-08-20T03:36:31;13.33;;;12.10;;
6432;SDS011;3249;42.690;23.260;2023-08-20T03:39:00;14.53;;;12.53;;
6432;SDS011;3249;42.690;23.260;2023-08-20T03:41:31;15.40;;;12.27;;
6432;SDS011;3249;42.690;23.260;2023-08-20T03:44:04;16.00;;;12.50;;
6432;SDS011;3249;42.690;23.260;2023-08-20T03:46:33;14.93;;;12.03;;
6432;SDS011;3249;42.690;23.260;2023-08-20T03:49:03;17.77;;;11.80;;
6432;SDS011;3249;42.690;23.260;2023-08-20T03:51:32;11.93;;;10.77;;
6432;SDS011;3249;42.690;23.260;2023-08-20T03:54:01;14.60;;;12.20;;
6432;SDS011;3249;42.690;23.260;2023-08-20T03:56:33;12.53;;;11.33;;
6432;SDS011;3249;42.690;23.260;2023-08-20T03:59:02;13.00;;;11.13;;
6432;SDS011;3249;42.690;23.260;2023-08-20T04:01:32;12.40;;;11.20;;
6432;SDS011;3249;42.690;23.260;2023-08-20T04:04:02;13.43;;;10.87;;
6432;SDS011;3249;42.690;23.260;2023-08-20T04:06:31;14.97;;;11.50;;
6432;SDS011;3249;42.690;23.260;2023-08-20T04:09:00;15.63;;;10.90;;
6432;SDS011;3249;42.690;23.260;2023-08-20T04:11:33;12.10;;;10.90;;
6432;SDS011;3249;42.690;23.260;2023-08-20T04:14:03;16.07;;;11.13;;
6432;SDS011;3249;42.690;23.260;2023-08-20T04:16:31;13.77;;;12.13;;
6432;SDS011;3249;42.690;23.260;2023-08-20T04:19:00;13.03;;;11.43;;
6432;SDS011;3249;42.690;23.260;2023-08-20T04:21:29;17.03;;;12.53;;
6432;SDS011;3249;42.690;23.260;2023-08-20T04:23:58;13.93;;;12.27;;
6432;SDS011;3249;42.690;23.260;2023-08-20T04:26:28;14.57;;;11.97;;
6432;SDS011;3249;42.690;23.260;2023-08-20T04:29:00;13.23;;;10.50;;
6432;SDS011;3249;42.690;23.260;2023-08-20T04:31:29;12.50;;;11.23;;
6432;SDS011;3249;42.690;23.260;2023-08-20T04:34:06;16.30;;;12.27;;
6432;SDS011;3249;42.690;23.260;2023-08-20T04:36:49;13.63;;;11.80;;
6432;SDS011;3249;42.690;23.260;2023-08-20T04:39:18;15.43;;;12.47;;
6432;SDS011;3249;42.690;23.260;2023-08-20T04:41:50;16.30;;;11.67;;
6432;SDS011;3249;42.690;23.260;2023-08-20T04:44:25;12.70;;;11.03;;
6432;SDS011;3249;42.690;23.260;2023-08-20T04:46:55;13.97;;;11.20;;
6432;SDS011;3249;42.690;23.260;2023-08-20T04:49:25;12.70;;;11.30;;
6432;SDS011;3249;42.690;23.260;2023-08-20T04:51:55;17.37;;;11.23;;
6432;SDS011;3249;42.690;23.260;2023-08-20T04:54:25;17.03;;;12.00;;
6432;SDS011;3249;42.690;23.260;2023-08-20T04:56:54;13.50;;;11.57;;
6432;SDS011;3249;42.690;23.260;2023-08-20T04:59:26;13.47;;;10.97;;
6432;SDS011;3249;42.690;23.260;2023-08-20T05:02:30;13.20;;;11.50;;
6432;SDS011;3249;42.690;23.260;2023-08-20T05:05:02;15.33;;;11.57;;
6432;SDS011;3249;42.690;23.260;2023-08-20T05:07:31;11.63;;;10.63;;
6432;SDS011;3249;42.690;23.260;2023-08-20T05:10:00;12.77;;;11.50;;
6432;SDS011;3249;42.690;23.260;2023-08-20T05:12:29;14.43;;;11.07;;
6432;SDS011;3249;42.690;23.260;2023-08-20T05:15:00;12.53;;;11.33;;
6432;SDS011;3249;42.690;23.260;2023-08-20T05:17:29;13.40;;;12.20;;
6432;SDS011;3249;42.690;23.260;2023-08-20T05:19:59;11.70;;;10.67;;
6432;SDS011;3249;42.690;23.260;2023-08-20T05:22:29;12.00;;;10.73;;
6432;SDS011;3249;42.690;23.260;2023-08-20T05:24:58;11.53;;;10.53;;
6432;SDS011;3249;42.690;23.260;2023-08-20T05:27:28;12.07;;;10.93;;
6432;SDS011;3249;42.690;23.260;2023-08-20T05:29:57;10.63;;;9.83;;
6432;SDS011;3249;42.690;23.260;2023-08-20T05:32:28;11.50;;;10.50;;
6432;SDS011;3249;42.690;23.260;2023-08-20T05:34:57;11.50;;;10.17;;
6432;SDS011;3249;42.690;23.260;2023-08-20T05:37:27;11.73;;;10.63;;
6432;SDS011;3249;42.690;23.260;2023-08-20T05:39:56;11.30;;;10.10;;
6432;SDS011;3249;42.690;23.260;2023-08-20T05:42:25;11.67;;;10.13;;
6432;SDS011;3249;42.690;23.260;2023-08-20T05:45:00;11.37;;;10.27;;
6432;SDS011;3249;42.690;23.260;2023-08-20T05:47:34;13.63;;;10.80;;
6432;SDS011;3249;42.690;23.260;2023-08-20T05:50:03;14.83;;;10.43;;
6432;SDS011;3249;42.690;23.260;2023-08-20T05:52:34;12.50;;;10.43;;
6432;SDS011;3249;42.690;23.260;2023-08-20T05:55:04;12.43;;;11.17;;
6432;SDS011;3249;42.690;23.260;2023-08-20T05:57:33;12.07;;;10.83;;
6432;SDS011;3249;42.690;23.260;2023-08-20T06:00:03;15.00;;;11.33;;
6432;SDS011;3249;42.690;23.260;2023-08-20T06:02:41;11.50;;;10.40;;
6432;SDS011;3249;42.690;23.260;2023-08-20T06:05:10;11.43;;;10.20;;
6432;SDS011;3249;42.690;23.260;2023-08-20T06:07:40;10.87;;;9.63;;
6432;SDS011;3249;42.690;23.260;2023-08-20T06:10:09;13.33;;;10.57;;
6432;SDS011;3249;42.690;23.260;2023-08-20T06:12:38;11.87;;;10.67;;
6432;SDS011;3249;42.690;23.260;2023-08-20T06:15:07;12.27;;;10.97;;
6432;SDS011;3249;42.690;23.260;2023-08-20T06:17:37;12.10;;;10.30;;
6432;SDS011;3249;42.690;23.260;2023-08-20T06:20:09;12.07;;;10.87;;
6432;SDS011;3249;42.690;23.260;2023-08-20T06:22:39;12.03;;;10.67;;
6432;SDS011;3249;42.690;23.260;2023-08-20T06:25:08;12.97;;;10.27;;
6432;SDS011;3249;42.690;23.260;2023-08-20T06:27:37;12.33;;;11.03;;
6432;SDS011;3249;42.690;23.260;2023-08-20T06:30:06;12.17;;;10.40;;
6432;SDS011;3249;42.690;23.260;2023-08-20T06:32:37;15.00;;;10.57;;
6432;SDS011;3249;42.690;23.260;2023-08-20T06:35:09;12.83;;;11.03;;
6432;SDS011;3249;42.690;23.260;2023-08-20T06:37:39;12.03;;;9.70;;
6432;SDS011;3249;42.690;23.260;2023-08-20T06:40:08;12.03;;;10.80;;
6432;SDS011;3249;42.690;23.260;2023-08-20T06:42:39;15.87;;;11.47;;
6432;SDS011;3249;42.690;23.260;2023-08-20T06:45:09;15.37;;;11.03;;
6432;SDS011;3249;42.690;23.260;2023-08-20T06:47:38;12.93;;;11.73;;
6432;SDS011;3249;42.690;23.260;2023-08-20T06:50:09;11.93;;;9.33;;
6432;SDS011;3249;42.690;23.260;2023-08-20T06:52:38;10.30;;;9.50;;
6432;SDS011;3249;42.690;23.260;2023-08-20T06:55:07;13.27;;;10.07;;
6432;SDS011;3249;42.690;23.260;2023-08-20T06:57:37;18.57;;;14.30;;
6432;SDS011;3249;42.690;23.260;2023-08-20T07:00:07;31.53;;;21.33;;
6432;SDS011;3249;42.690;23.260;2023-08-20T07:02:36;17.87;;;14.17;;
6432;SDS011;3249;42.690;23.260;2023-08-20T07:05:05;21.57;;;15.17;;
6432;SDS011;3249;42.690;23.260;2023-08-20T07:07:37;11.70;;;10.60;;
6432;SDS011;3249;42.690;23.260;2023-08-20T07:10:06;13.83;;;12.43;;
6432;SDS011;3249;42.690;23.260;2023-08-20T07:12:36;16.57;;;12.27;;
6432;SDS011;3249;42.690;23.260;2023-08-20T07:15:06;15.53;;;12.37;;
6432;SDS011;3249;42.690;23.260;2023-08-20T07:17:35;12.27;;;9.87;;
6432;SDS011;3249;42.690;23.260;2023-08-20T07:20:05;8.50;;;7.60;;
6432;SDS011;3249;42.690;23.260;2023-08-20T07:22:38;11.43;;;7.10;;
6432;SDS011;3249;42.690;23.260;2023-08-20T07:25:08;9.00;;;8.07;;
6432;SDS011;3249;42.690;23.260;2023-08-20T07:27:36;8.73;;;7.93;;
6432;SDS011;3249;42.690;23.260;2023-08-20T07:30:08;8.13;;;6.93;;
6432;SDS011;3249;42.690;23.260;2023-08-20T07:32:38;12.60;;;8.63;;
6432;SDS011;3249;42.690;23.260;2023-08-20T07:35:07;17.83;;;10.00;;
6432;SDS011;3249;42.690;23.260;2023-08-20T07:37:39;9.40;;;8.33;;
6432;SDS011;3249;42.690;23.260;2023-08-20T07:40:09;12.67;;;10.60;;
6432;SDS011;3249;42.690;23.260;2023-08-20T07:42:39;17.17;;;11.80;;
6432;SDS011;3249;42.690;23.260;2023-08-20T07:45:10;11.90;;;9.47;;
6432;SDS011;3249;42.690;23.260;2023-08-20T07:47:40;10.80;;;7.60;;
6432;SDS011;3249;42.690;23.260;2023-08-20T07:50:09;8.53;;;7.80;;
6432;SDS011;3249;42.690;23.260;2023-08-20T07:52:40;11.13;;;7.97;;
6432;SDS011;3249;42.690;23.260;2023-08-20T07:55:09;8.93;;;7.70;;
6432;SDS011;3249;42.690;23.260;2023-08-20T07:57:38;7.70;;;7.10;;
6432;SDS011;3249;42.690;23.260;2023-08-20T08:00:08;8.03;;;7.33;;
6432;SDS011;3249;42.690;23.260;2023-08-20T08:02:39;9.27;;;7.60;;
6432;SDS011;3249;42.690;23.260;2023-08-20T08:05:08;7.60;;;7.10;;
6432;SDS011;3249;42.690;23.260;2023-08-20T08:07:42;8.57;;;7.77;;
6432;SDS011;3249;42.690;23.260;2023-08-20T08:10:11;9.33;;;8.50;;
6432;SDS011;3249;42.690;23.260;2023-08-20T08:12:41;7.90;;;7.20;;
6432;SDS011;3249;42.690;23.260;2023-08-20T08:15:09;8.83;;;7.47;;
6432;SDS011;3249;42.690;23.260;2023-08-20T08:17:39;10.73;;;7.70;;
6432;SDS011;3249;42.690;23.260;2023-08-20T08:20:08;8.20;;;7.70;;
6432;SDS011;3249;42.690;23.260;2023-08-20T08:22:37;7.57;;;6.87;;
6432;SDS011;3249;42.690;23.260;2023-08-20T08:25:09;11.17;;;7.47;;
6432;SDS011;3249;42.690;23.260;2023-08-20T08:27:38;7.30;;;6.60;;
6432;SDS011;3249;42.690;23.260;2023-08-20T08:30:07;9.57;;;7.03;;
6432;SDS011;3249;42.690;23.260;2023-08-20T08:32:36;9.87;;;8.07;;
6432;SDS011;3249;42.690;23.260;2023-08-20T08:35:06;7.50;;;6.73;;
6432;SDS011;3249;42.690;23.260;2023-08-20T08:37:36;7.90;;;7.03;;
6432;SDS011;3249;42.690;23.260;2023-08-20T08:40:06;12.90;;;7.57;;
6432;SDS011;3249;42.690;23.260;2023-08-20T08:42:39;8.73;;;7.00;;
6432;SDS011;3249;42.690;23.260;2023-08-20T08:45:09;7.83;;;7.07;;
6432;SDS011;3249;42.690;23.260;2023-08-20T08:47:39;9.37;;;7.37;;
6432;SDS011;3249;42.690;23.260;2023-08-20T08:50:08;10.30;;;7.97;;
6432;SDS011;3249;42.690;23.260;2023-08-20T08:52:38;7.80;;;7.03;;
6432;SDS011;3249;42.690;23.260;2023-08-20T08:55:12;11.60;;;7.43;;
6432;SDS011;3249;42.690;23.260;2023-08-20T08:57:42;7.23;;;6.60;;
6432;SDS011;3249;42.690;23.260;2023-08-20T09:00:11;7.83;;;7.23;;
6432;SDS011;3249;42.690;23.260;2023-08-20T09:02:41;6.93;;;6.40;;
6432;SDS011;3249;42.690;23.260;2023-08-20T09:05:12;8.00;;;7.00;;
6432;SDS011;3249;42.690;23.260;2023-08-20T09:07:42;7.07;;;6.27;;
6432;SDS011;3249;42.690;23.260;2023-08-20T09:10:15;6.77;;;6.37;;
6432;SDS011;3249;42.690;23.260;2023-08-20T09:12:45;8.00;;;7.27;;
6432;SDS011;3249;42.690;23.260;2023-08-20T09:15:16;7.63;;;6.93;;
6432;SDS011;3249;42.690;23.260;2023-08-20T09:17:46;8.13;;;7.33;;
6432;SDS011;3249;42.690;23.260;2023-08-20T09:20:15;6.33;;;5.83;;
6432;SDS011;3249;42.690;23.260;2023-08-20T09:22:48;6.30;;;5.73;;
6432;SDS011;3249;42.690;23.260;2023-08-20T09:25:19;9.77;;;6.50;;
6432;SDS011;3249;42.690;23.260;2023-08-20T09:27:49;6.53;;;6.00;;
6432;SDS011;3249;42.690;23.260;2023-08-20T09:30:18;6.40;;;5.90;;
6432;SDS011;3249;42.690;23.260;2023-08-20T09:32:51;13.90;;;11.47;;
6432;SDS011;3249;42.690;23.260;2023-08-20T09:35:32;6.27;;;5.67;;
6432;SDS011;3249;42.690;23.260;2023-08-20T09:38:02;6.57;;;5.87;;
6432;SDS011;3249;42.690;23.260;2023-08-20T09:40:35;8.40;;;5.87;;
6432;SDS011;3249;42.690;23.260;2023-08-20T09:43:04;6.43;;;5.97;;
6432;SDS011;3249;42.690;23.260;2023-08-20T09:45:36;7.03;;;6.50;;
6432;SDS011;3249;42.690;23.260;2023-08-20T09:48:06;6.77;;;5.87;;
6432;SDS011;3249;42.690;23.260;2023-08-20T09:50:40;6.10;;;5.53;;
6432;SDS011;3249;42.690;23.260;2023-08-20T09:53:15;9.73;;;7.97;;
6432;SDS011;3249;42.690;23.260;2023-08-20T09:55:54;6.47;;;5.93;;
6432;SDS011;3249;42.690;23.260;2023-08-20T09:58:29;6.10;;;5.43;;
6432;SDS011;3249;42.690;23.260;2023-08-20T10:00:59;5.77;;;5.27;;
6432;SDS011;3249;42.690;23.260;2023-08-20T10:03:29;6.03;;;4.90;;
6432;SDS011;3249;42.690;23.260;2023-08-20T10:05:59;5.60;;;5.20;;
6432;SDS011;3249;42.690;23.260;2023-08-20T10:08:29;8.97;;;5.47;;
6432;SDS011;3249;42.690;23.260;2023-08-20T10:11:01;5.10;;;4.70;;
6432;SDS011;3249;42.690;23.260;2023-08-20T10:13:30;5.23;;;4.80;;
6432;SDS011;3249;42.690;23.260;2023-08-20T10:15:59;5.00;;;4.57;;
6432;SDS011;3249;42.690;23.260;2023-08-20T10:18:28;5.13;;;4.60;;
6432;SDS011;3249;42.690;23.260;2023-08-20T10:20:57;7.93;;;4.80;;
6432;SDS011;3249;42.690;23.260;2023-08-20T10:23:27;5.17;;;4.77;;
6432;SDS011;3249;42.690;23.260;2023-08-20T10:25:55;6.27;;;4.97;;
6432;SDS011;3249;42.690;23.260;2023-08-20T10:28:39;5.80;;;5.27;;
6432;SDS011;3249;42.690;23.260;2023-08-20T10:31:09;4.97;;;4.60;;
6432;SDS011;3249;42.690;23.260;2023-08-20T10:33:48;5.00;;;4.60;;
6432;SDS011;3249;42.690;23.260;2023-08-20T10:36:19;4.90;;;4.50;;
6432;SDS011;3249;42.690;23.260;2023-08-20T10:38:53;5.50;;;5.10;;
6432;SDS011;3249;42.690;23.260;2023-08-20T10:41:27;5.50;;;4.63;;
6432;SDS011;3249;42.690;23.260;2023-08-20T10:43:59;5.03;;;4.57;;
6432;SDS011;3249;42.690;23.260;2023-08-20T10:46:29;5.20;;;4.70;;
6432;SDS011;3249;42.690;23.260;2023-08-20T10:49:02;5.07;;;4.67;;
6432;SDS011;3249;42.690;23.260;2023-08-20T10:51:32;6.13;;;4.83;;
6432;SDS011;3249;42.690;23.260;2023-08-20T10:54:03;5.93;;;4.67;;
6432;SDS011;3249;42.690;23.260;2023-08-20T10:56:41;5.17;;;4.77;;
6432;SDS011;3249;42.690;23.260;2023-08-20T10:59:13;5.17;;;4.67;;
6432;SDS011;3249;42.690;23.260;2023-08-20T11:01:44;4.97;;;4.67;;
6432;SDS011;3249;42.690;23.260;2023-08-20T11:04:15;4.93;;;4.53;;
6432;SDS011;3249;42.690;23.260;2023-08-20T11:06:45;8.43;;;4.80;;
6432;SDS011;3249;42.690;23.260;2023-08-20T11:09:15;5.10;;;4.60;;
6432;SDS011;3249;42.690;23.260;2023-08-20T11:11:46;4.97;;;4.40;;
6432;SDS011;3249;42.690;23.260;2023-08-20T11:14:17;8.03;;;5.10;;
6432;SDS011;3249;42.690;23.260;2023-08-20T11:16:48;4.80;;;4.50;;
6432;SDS011;3249;42.690;23.260;2023-08-20T11:19:19;5.13;;;4.83;;
6432;SDS011;3249;42.690;23.260;2023-08-20T11:21:49;4.77;;;4.40;;
6432;SDS011;3249;42.690;23.260;2023-08-20T11:24:19;6.23;;;4.67;;
6432;SDS011;3249;42.690;23.260;2023-08-20T11:26:53;4.83;;;4.37;;
6432;SDS011;3249;42.690;23.260;2023-08-20T11:29:24;5.70;;;5.20;;
6432;SDS011;3249;42.690;23.260;2023-08-20T11:31:56;4.93;;;4.53;;
6432;SDS011;3249;42.690;23.260;2023-08-20T11:34:28;5.17;;;4.67;;
6432;SDS011;3249;42.690;23.260;2023-08-20T11:37:00;4.73;;;4.43;;
6432;SDS011;3249;42.690;23.260;2023-08-20T11:39:30;5.63;;;4.80;;
6432;SDS011;3249;42.690;23.260;2023-08-20T11:42:02;5.83;;;5.10;;
6432;SDS011;3249;42.690;23.260;2023-08-20T11:44:41;5.13;;;4.70;;
6432;SDS011;3249;42.690;23.260;2023-08-20T11:47:15;5.30;;;4.80;;
6432;SDS011;3249;42.690;23.260;2023-08-20T11:49:45;7.10;;;6.60;;
6432;SDS011;3249;42.690;23.260;2023-08-20T11:52:14;4.97;;;4.60;;
6432;SDS011;3249;42.690;23.260;2023-08-20T11:54:43;5.10;;;4.80;;
6432;SDS011;3249;42.690;23.260;2023-08-20T11:57:15;5.20;;;4.90;;
6432;SDS011;3249;42.690;23.260;2023-08-20T11:59:47;5.13;;;4.90;;
6432;SDS011;3249;42.690;23.260;2023-08-20T12:02:24;7.20;;;5.40;;
6432;SDS011;3249;42.690;23.260;2023-08-20T12:04:55;5.00;;;4.60;;
6432;SDS011;3249;42.690;23.260;2023-08-20T12:07:25;4.97;;;4.67;;
6432;SDS011;3249;42.690;23.260;2023-08-20T12:09:55;5.80;;;5.40;;
6432;SDS011;3249;42.690;23.260;2023-08-20T12:12:50;9.13;;;5.07;;
6432;SDS011;3249;42.690;23.260;2023-08-20T12:15:19;5.73;;;5.33;;
6432;SDS011;3249;42.690;23.260;2023-08-20T12:17:58;6.60;;;4.97;;
6432;SDS011;3249;42.690;23.260;2023-08-20T12:20:30;5.03;;;4.73;;
6432;SDS011;3249;42.690;23.260;2023-08-20T12:23:01;8.77;;;5.03;;
6432;SDS011;3249;42.690;23.260;2023-08-20T12:25:32;4.90;;;4.60;;
6432;SDS011;3249;42.690;23.260;2023-08-20T12:28:05;5.33;;;4.80;;
6432;SDS011;3249;42.690;23.260;2023-08-20T12:30:34;7.13;;;5.30;;
6432;SDS011;3249;42.690;23.260;2023-08-20T12:33:04;6.20;;;5.03;;
6432;SDS011;3249;42.690;23.260;2023-08-20T12:35:33;5.37;;;4.80;;
6432;SDS011;3249;42.690;23.260;2023-08-20T12:38:03;5.07;;;4.67;;
6432;SDS011;3249;42.690;23.260;2023-08-20T12:40:33;5.20;;;4.60;;
6432;SDS011;3249;42.690;23.260;2023-08-20T12:43:05;5.60;;;5.10;;
6432;SDS011;3249;42.690;23.260;2023-08-20T12:45:33;5.30;;;4.90;;
6432;SDS011;3249;42.690;23.260;2023-08-20T12:48:04;5.00;;;4.70;;
6432;SDS011;3249;42.690;23.260;2023-08-20T12:50:35;5.33;;;4.93;;
6432;SDS011;3249;42.690;23.260;2023-08-20T12:53:04;5.30;;;5.00;;
6432;SDS011;3249;42.690;23.260;2023-08-20T12:55:32;4.73;;;4.43;;
6432;SDS011;3249;42.690;23.260;2023-08-20T12:58:01;5.90;;;4.77;;
6432;SDS011;3249;42.690;23.260;2023-08-20T13:00:33;5.47;;;5.13;;
6432;SDS011;3249;42.690;23.260;2023-08-20T13:03:03;5.37;;;4.87;;
6432;SDS011;3249;42.690;23.260;2023-08-20T13:05:33;5.53;;;5.03;;
6432;SDS011;3249;42.690;23.260;2023-08-20T13:08:03;5.40;;;5.10;;
6432;SDS011;3249;42.690;23.260;2023-08-20T13:10:33;4.83;;;4.53;;
6432;SDS011;3249;42.690;23.260;2023-08-20T13:13:03;5.30;;;4.90;;
6432;SDS011;3249;42.690;23.260;2023-08-20T13:15:35;6.13;;;5.23;;
6432;SDS011;3249;42.690;23.260;2023-08-20T13:18:06;5.50;;;4.87;;
6432;SDS011;3249;42.690;23.260;2023-08-20T13:20:36;5.00;;;4.70;;
6432;SDS011;3249;42.690;23.260;2023-08-20T13:23:05;5.73;;;5.23;;
6432;SDS011;3249;42.690;23.260;2023-08-20T13:25:34;5.93;;;5.43;;
6432;SDS011;3249;42.690;23.260;2023-08-20T13:28:03;5.67;;;5.17;;
6432;SDS011;3249;42.690;23.260;2023-08-20T13:30:38;6.43;;;6.03;;
6432;SDS011;3249;42.690;23.260;2023-08-20T13:33:08;5.43;;;4.97;;
6432;SDS011;3249;42.690;23.260;2023-08-20T13:35:37;6.27;;;5.67;;
6432;SDS011;3249;42.690;23.260;2023-08-20T13:38:06;33.63;;;30.57;;
6432;SDS011;3249;42.690;23.260;2023-08-20T13:40:35;12.30;;;10.67;;
6432;SDS011;3249;42.690;23.260;2023-08-20T13:43:04;11.77;;;6.57;;
6432;SDS011;3249;42.690;23.260;2023-08-20T13:45:34;5.40;;;5.00;;
6432;SDS011;3249;42.690;23.260;2023-08-20T13:48:06;5.67;;;5.13;;
6432;SDS011;3249;42.690;23.260;2023-08-20T13:50:36;6.00;;;5.50;;
6432;SDS011;3249;42.690;23.260;2023-08-20T13:53:05;5.73;;;5.20;;
6432;SDS011;3249;42.690;23.260;2023-08-20T13:55:35;7.97;;;6.30;;
6432;SDS011;3249;42.690;23.260;2023-08-20T13:58:04;6.03;;;5.63;;
6432;SDS011;3249;42.690;23.260;2023-08-20T14:00:33;5.93;;;5.53;;
6432;SDS011;3249;42.690;23.260;2023-08-20T14:03:05;5.20;;;4.80;;
6432;SDS011;3249;42.690;23.260;2023-08-20T14:05:34;12.27;;;11.07;;
6432;SDS011;3249;42.690;23.260;2023-08-20T14:08:03;41.63;;;37.63;;
6432;SDS011;3249;42.690;23.260;2023-08-20T14:10:33;16.00;;;14.37;;
6432;SDS011;3249;42.690;23.260;2023-08-20T14:13:02;21.93;;;19.73;;
6432;SDS011;3249;42.690;23.260;2023-08-20T14:15:32;7.10;;;6.40;;
6432;SDS011;3249;42.690;23.260;2023-08-20T14:18:02;5.57;;;5.07;;
6432;SDS011;3249;42.690;23.260;2023-08-20T14:20:33;5.33;;;5.03;;
6432;SDS011;3249;42.690;23.260;2023-08-20T14:23:02;7.13;;;5.90;;
6432;SDS011;3249;42.690;23.260;2023-08-20T14:25:32;6.57;;;5.93;;
6432;SDS011;3249;42.690;23.260;2023-08-20T14:28:01;5.80;;;5.30;;
6432;SDS011;3249;42.690;23.260;2023-08-20T14:30:30;14.40;;;13.07;;
6432;SDS011;3249;42.690;23.260;2023-08-20T14:32:59;16.77;;;15.03;;
6432;SDS011;3249;42.690;23.260;2023-08-20T14:35:31;16.70;;;15.07;;
6432;SDS011;3249;42.690;23.260;2023-08-20T14:38:00;12.23;;;11.03;;
6432;SDS011;3249;42.690;23.260;2023-08-20T14:40:29;25.20;;;22.90;;
6432;SDS011;3249;42.690;23.260;2023-08-20T14:42:59;6.50;;;6.00;;
6432;SDS011;3249;42.690;23.260;2023-08-20T14:45:29;7.07;;;5.20;;
6432;SDS011;3249;42.690;23.260;2023-08-20T14:47:57;5.53;;;5.10;;
6432;SDS011;3249;42.690;23.260;2023-08-20T14:50:31;5.80;;;5.30;;
6432;SDS011;3249;42.690;23.260;2023-08-20T14:53:00;6.47;;;6.07;;
6432;SDS011;3249;42.690;23.260;2023-08-20T14:55:29;11.53;;;9.83;;
6432;SDS011;3249;42.690;23.260;2023-08-20T14:57:58;21.30;;;19.23;;
6432;SDS011;3249;42.690;23.260;2023-08-20T15:00:31;14.80;;;13.50;;
6432;SDS011;3249;42.690;23.260;2023-08-20T15:03:00;35.37;;;32.07;;
6432;SDS011;3249;42.690;23.260;2023-08-20T15:05:32;43.77;;;39.23;;
6432;SDS011;3249;42.690;23.260;2023-08-20T15:08:02;14.70;;;13.20;;
6432;SDS011;3249;42.690;23.260;2023-08-20T15:10:31;5.57;;;4.97;;